Hennessey, OK

10:38 AM CST on February 27, 2015 (GMT -0600)
APRSWXNET Waukomis OK US | Change Station
CLOSE
Current Station
Personal Weather Station
Location: Waukomis, OK
Elevation: 1220 ft
Nearby Weather Stations

Elev 1220 ft 36.29 °N, 97.94 °W | Updated 47 minutes ago

Overcast
Overcast
15 °F
Feels Like 6 °F
N
6
Wind Variable Wind from ENE
Gusts 11.0 mph

Today
High -- | Low -- °F
--% Chance of Precip.
Yesterday
High -- | Low -- °F
Precip. -- in
7:04 AM 6:24 PM
Waxing Gibbous, 70% visible
Pressure 30.56 in
Visibility 1.0 miles
Clouds Overcast 500 ft
Windchill 6 °F
Dew Point 1 °F
Humidity 52%
Rainfall 0.00 in
Snow Depth Not available.
UV 1 out of 12
Pollen 3.70 out of 12
Air Quality Not available.
Flu Activity Not available.
SPECI KEND 271628Z 05008KT 1SM -SN OVC005 M10/M14 A3056 RMK AO2A CIG 005V010

More Conditions Fewer Conditions

Pressure 30.56 in
Visibility 1.0 miles
Clouds Overcast 500 ft
Windchill 6 °F
Dew Point 1 °F
Humidity 52%
Rainfall 0.00 in
Snow Depth Not available.
UV 1 out of 12
Pollen 3.70 out of 12
Air Quality Not available.
Flu Activity Not available.
SPECI KEND 271628Z 05008KT 1SM -SN OVC005 M10/M14 A3056 RMK AO2A CIG 005V010

More Conditions Fewer Conditions

10-Day Weather Forecast

Almanac

Astronomy

Feb. 27, 2015 Rise Set
Actual Time
Civil Twilight
Nautical Twilight
Astronomical Twilight
Moon
Length of Visible Light
Length of Day
Tomorrow will be .
, % of the Moon is Illuminated

Today's Extremes

State Highs State Lows

Community

WunderPhotos

Upload Photos

1,800,731 photos uploaded!

WunderBlogs® & News

Nearby

Air Quality

  Air Quality AQ Index Pollutant
Not available.

Snow Depth

Station Depth Elevation

Earthquake Activity

City Distance Mag. Time & Date
Minimum magnitude displayed is 2.5.

Coastal Water Temperatures

Place Temperature

Nearby Weather Stations